createdAt,value
2019-02-02T00:01:12.175Z,99404.94
2019-02-02T00:03:40.166Z,99405.71
2019-02-02T00:06:08.210Z,99407.39
2019-02-02T00:08:36.882Z,99409.52
2019-02-02T00:11:05.374Z,99417.53
2019-02-02T00:13:33.280Z,99428.20
2019-02-02T00:16:01.170Z,99425.91
2019-02-02T00:18:29.451Z,99439.00
2019-02-02T00:20:57.334Z,99435.88
2019-02-02T00:23:25.250Z,99432.24
2019-02-02T00:25:54.450Z,99432.73
2019-02-02T00:28:22.314Z,99425.42
2019-02-02T00:30:50.333Z,99420.88
2019-02-02T00:33:18.403Z,99424.47
2019-02-02T00:35:46.258Z,99424.55
2019-02-02T00:38:15.232Z,99423.91
2019-02-02T00:40:43.297Z,99418.26
2019-02-02T00:43:11.238Z,99423.78
2019-02-02T00:45:39.223Z,99420.36
2019-02-02T00:48:07.084Z,99426.95
2019-02-02T00:50:35.044Z,99417.98
2019-02-02T00:53:03.137Z,99420.02
2019-02-02T00:55:31.007Z,99412.47
2019-02-02T00:57:58.876Z,99425.52
2019-02-02T01:00:27.302Z,99421.41
2019-02-02T01:02:55.235Z,99416.69
2019-02-02T01:05:23.404Z,99421.73
2019-02-02T01:07:51.849Z,99413.41
2019-02-02T01:10:24.207Z,99423.64
2019-02-02T01:12:52.145Z,99424.69
2019-02-02T01:15:20.070Z,99420.36
2019-02-02T01:17:48.161Z,99428.30
2019-02-02T01:20:16.470Z,99425.62
2019-02-02T01:22:44.596Z,99432.41
2019-02-02T01:25:13.067Z,99439.58
2019-02-02T01:27:40.975Z,99438.06
2019-02-02T01:30:11.230Z,99431.39
2019-02-02T01:32:42.032Z,99435.11
2019-02-02T01:35:11.769Z,99425.48
2019-02-02T01:37:39.693Z,99425.59
2019-02-02T01:40:12.039Z,99427.55
2019-02-02T01:42:39.889Z,99431.53
2019-02-02T01:45:17.899Z,99429.73
2019-02-02T01:47:45.697Z,99432.66
2019-02-02T01:50:15.837Z,99432.55
2019-02-02T01:52:44.009Z,99436.59
2019-02-02T01:55:13.558Z,99441.17
2019-02-02T01:57:41.578Z,99449.50
2019-02-02T02:00:16.910Z,99450.55
2019-02-02T02:02:44.787Z,99461.04
2019-02-02T02:05:13.442Z,99468.98
2019-02-02T02:07:41.923Z,99469.59
2019-02-02T02:10:11.562Z,99466.09
2019-02-02T02:12:39.570Z,99461.77
2019-02-02T02:15:10.168Z,99463.81
2019-02-02T02:17:38.230Z,99469.46
2019-02-02T02:20:07.718Z,99459.31
2019-02-02T02:22:41.035Z,99459.30
2019-02-02T02:25:09.536Z,99457.63
2019-02-02T02:27:37.369Z,99453.44
2019-02-02T02:30:06.492Z,99458.50
2019-02-02T02:32:34.619Z,99460.64
2019-02-02T02:35:02.637Z,99459.64
2019-02-02T02:37:30.524Z,99468.93
2019-02-02T02:39:58.487Z,99468.78
2019-02-02T02:42:26.471Z,99471.44
2019-02-02T02:44:54.548Z,99475.02
2019-02-02T02:47:22.551Z,99472.88
2019-02-02T02:49:50.565Z,99473.02
2019-02-02T02:52:18.478Z,99468.74
2019-02-02T02:54:46.629Z,99468.70
2019-02-02T02:57:14.712Z,99472.14
2019-02-02T02:59:42.866Z,99478.49
2019-02-02T03:02:14.600Z,99478.55
2019-02-02T03:04:43.274Z,99479.00
2019-02-02T03:07:12.232Z,99481.25
2019-02-02T03:09:40.770Z,99481.89
2019-02-02T03:12:09.060Z,99486.39
2019-02-02T03:14:37.146Z,99476.89
2019-02-02T03:17:10.975Z,99481.69
2019-02-02T03:19:42.251Z,99486.24
2019-02-02T03:22:10.947Z,99474.11
2019-02-02T03:24:39.395Z,99469.41
2019-02-02T03:27:07.500Z,99468.89
2019-02-02T03:29:38.421Z,99477.73
2019-02-02T03:32:06.926Z,99478.78
2019-02-02T03:34:35.399Z,99477.34
2019-02-02T03:37:03.462Z,99485.10
2019-02-02T03:39:31.639Z,99497.45
2019-02-02T03:41:59.651Z,99497.50
2019-02-02T03:44:27.657Z,99503.81
2019-02-02T03:46:58.045Z,99512.16
2019-02-02T03:49:25.960Z,99523.46
2019-02-02T03:51:53.826Z,99517.78
2019-02-02T03:54:21.812Z,99533.24
2019-02-02T03:56:49.647Z,99530.51
2019-02-02T03:59:17.533Z,99534.00
2019-02-02T04:01:45.566Z,99535.55
2019-02-02T04:04:16.008Z,99527.59
2019-02-02T04:06:43.885Z,99522.73
2019-02-02T04:09:11.885Z,99529.44
2019-02-02T04:11:39.885Z,99536.45
2019-02-02T04:14:07.833Z,99545.95
2019-02-02T04:16:35.614Z,99540.77
2019-02-02T04:19:03.729Z,99535.44
2019-02-02T04:21:31.697Z,99538.41
2019-02-02T04:23:59.631Z,99536.65
2019-02-02T04:26:27.568Z,99535.34
2019-02-02T04:28:55.560Z,99533.19
2019-02-02T04:31:23.817Z,99533.08
2019-02-02T04:33:51.715Z,99536.09
2019-02-02T04:36:19.805Z,99546.47
2019-02-02T04:38:47.688Z,99546.84
2019-02-02T04:41:16.375Z,99548.14
2019-02-02T04:43:44.394Z,99554.23
2019-02-02T04:46:12.306Z,99555.69
2019-02-02T04:48:40.191Z,99565.80
2019-02-02T04:51:08.179Z,99574.39
2019-02-02T04:53:36.028Z,99572.13
2019-02-02T04:56:04.000Z,99571.38
2019-02-02T04:58:32.070Z,99576.04
2019-02-02T05:01:00.089Z,99573.22
2019-02-02T05:03:27.927Z,99574.98
2019-02-02T05:05:56.102Z,99573.94
2019-02-02T05:08:24.070Z,99574.75
2019-02-02T05:10:52.198Z,99584.78
2019-02-02T05:13:20.096Z,99585.83
2019-02-02T05:15:48.041Z,99595.37
2019-02-02T05:18:16.077Z,99598.67
2019-02-02T05:20:43.973Z,99597.09
2019-02-02T05:23:13.149Z,99604.61
2019-02-02T05:25:41.205Z,99600.18
2019-02-02T05:28:09.052Z,99599.77
2019-02-02T05:30:37.013Z,99603.41
2019-02-02T05:33:04.844Z,99605.12
2019-02-02T05:35:32.744Z,99601.43
2019-02-02T05:38:00.903Z,99608.16
2019-02-02T05:40:28.832Z,99594.73
2019-02-02T05:42:58.198Z,99600.05
2019-02-02T05:45:26.045Z,99606.63
2019-02-02T05:47:53.892Z,99607.99
2019-02-02T05:50:22.363Z,99618.66
2019-02-02T05:52:50.753Z,99610.41
2019-02-02T05:55:19.220Z,99622.65
2019-02-02T05:58:07.868Z,99622.00
2019-02-02T06:00:55.438Z,99631.41
2019-02-02T06:03:23.231Z,99625.88
2019-02-02T06:05:51.169Z,99629.19
2019-02-02T06:08:19.029Z,99635.55
2019-02-02T06:10:46.883Z,99630.77
2019-02-02T06:13:14.959Z,99642.05
2019-02-02T06:15:42.777Z,99644.84
2019-02-02T06:18:10.664Z,99639.83
2019-02-02T06:20:38.727Z,99656.81
2019-02-02T06:23:06.767Z,99658.27
2019-02-02T06:25:34.617Z,99663.45
2019-02-02T06:28:02.553Z,99668.48
2019-02-02T06:30:30.486Z,99665.05
2019-02-02T06:33:00.561Z,99673.75
2019-02-02T06:35:28.732Z,99674.43
2019-02-02T06:37:57.348Z,99677.33
2019-02-02T06:40:25.596Z,99683.06
2019-02-02T06:42:53.865Z,99681.84
2019-02-02T06:45:27.480Z,99687.48
2019-02-02T06:47:56.077Z,99693.09
2019-02-02T06:50:23.983Z,99699.97
2019-02-02T06:52:52.299Z,99704.44
2019-02-02T06:55:20.985Z,99705.13
2019-02-02T06:57:49.980Z,99715.11
2019-02-02T07:00:20.261Z,99716.91
2019-02-02T07:02:48.404Z,99722.16
2019-02-02T07:05:16.300Z,99725.44
2019-02-02T07:07:45.119Z,99723.64
2019-02-02T07:10:20.230Z,99731.34
2019-02-02T07:12:51.186Z,99737.67
2019-02-02T07:15:22.262Z,99731.33
2019-02-02T07:17:52.354Z,99733.92
2019-02-02T07:20:20.294Z,99737.73
2019-02-02T07:22:48.369Z,99744.14
2019-02-02T07:25:17.458Z,99757.47
2019-02-02T07:27:45.949Z,99757.02
2019-02-02T07:30:28.371Z,99759.66
2019-02-02T07:32:47.161Z,99764.56
2019-02-02T07:35:15.077Z,99766.72
2019-02-02T07:37:43.039Z,99763.59
2019-02-02T07:40:13.060Z,99774.92
2019-02-02T07:42:45.859Z,99779.73
2019-02-02T07:45:20.646Z,99787.94
2019-02-02T07:47:58.816Z,99795.63
2019-02-02T07:50:26.812Z,99795.78
2019-02-02T07:52:56.082Z,99806.66
2019-02-02T07:55:26.954Z,99806.78
2019-02-02T07:57:56.062Z,99804.07
2019-02-02T08:00:40.965Z,99815.11
2019-02-02T08:03:08.578Z,99817.97
2019-02-02T08:05:38.672Z,99818.73
2019-02-02T08:08:07.762Z,99824.78
2019-02-02T08:10:37.732Z,99818.87
2019-02-02T08:13:10.950Z,99824.00
2019-02-02T08:15:39.759Z,99829.03
2019-02-02T08:18:07.793Z,99827.72
2019-02-02T08:20:37.865Z,99829.27
2019-02-02T08:23:05.861Z,99831.04
2019-02-02T08:25:34.213Z,99834.66
2019-02-02T08:28:03.401Z,99838.93
2019-02-02T08:30:37.299Z,99845.02
2019-02-02T08:33:05.872Z,99851.11
2019-02-02T08:35:35.199Z,99853.43
2019-02-02T08:38:03.884Z,99854.73
2019-02-02T08:40:31.997Z,99860.03
2019-02-02T08:42:59.881Z,99862.33
2019-02-02T08:45:27.860Z,99865.25
2019-02-02T08:47:55.830Z,99870.62
2019-02-02T08:50:27.483Z,99880.81
2019-02-02T08:52:58.483Z,99881.91
2019-02-02T08:55:29.006Z,99886.97
2019-02-02T08:57:56.922Z,99894.08
2019-02-02T09:00:25.123Z,99899.38
2019-02-02T09:02:53.065Z,99905.89
2019-02-02T09:05:23.374Z,99907.39
2019-02-02T09:07:51.644Z,99902.81
2019-02-02T09:10:22.520Z,99912.16
2019-02-02T09:12:56.353Z,99908.98
2019-02-02T09:15:27.609Z,99909.95
2019-02-02T09:17:58.221Z,99908.27
2019-02-02T09:20:26.658Z,99915.58
2019-02-02T09:23:05.842Z,99920.50
2019-02-02T09:25:26.341Z,99921.25
2019-02-02T09:27:54.441Z,99925.66
2019-02-02T09:30:28.925Z,99928.72
2019-02-02T09:32:57.203Z,99926.55
2019-02-02T09:35:32.064Z,99933.05
2019-02-02T09:38:00.425Z,99938.75
2019-02-02T09:40:28.974Z,99937.32
2019-02-02T09:42:59.063Z,99940.10
2019-02-02T09:45:28.312Z,99943.81
2019-02-02T09:47:56.228Z,99950.55
2019-02-02T09:50:24.739Z,99960.14
2019-02-02T09:52:52.994Z,99962.31
2019-02-02T09:55:22.218Z,99970.92
2019-02-02T09:57:55.132Z,99959.97
2019-02-02T10:00:26.409Z,99972.94
2019-02-02T10:02:54.839Z,99977.11
2019-02-02T10:05:23.141Z,99982.16
2019-02-02T10:07:57.387Z,99983.11
2019-02-02T10:10:27.933Z,99986.95
2019-02-02T10:12:55.795Z,99991.23
2019-02-02T10:15:23.934Z,99991.75
2019-02-02T10:17:51.764Z,99992.58
2019-02-02T10:20:22.597Z,99999.25
2019-02-02T10:22:51.082Z,100002.55
2019-02-02T10:25:22.176Z,100008.91
2019-02-02T10:27:50.212Z,100010.19
2019-02-02T10:30:24.569Z,100019.86
2019-02-02T10:32:52.528Z,100024.16
2019-02-02T10:35:20.385Z,100025.86
2019-02-02T10:37:48.443Z,100027.09
2019-02-02T10:40:16.456Z,100035.54
2019-02-02T10:42:44.715Z,100037.28
2019-02-02T10:45:13.098Z,100043.70
2019-02-02T10:47:42.986Z,100038.88
2019-02-02T10:50:12.894Z,100049.50
2019-02-02T10:52:40.816Z,100053.00
2019-02-02T10:55:10.572Z,100054.05
2019-02-02T10:57:39.032Z,100055.48
2019-02-02T11:00:12.801Z,100064.49
2019-02-02T11:02:40.844Z,100064.03
2019-02-02T11:05:09.479Z,100064.89
2019-02-02T11:07:37.329Z,100068.00
2019-02-02T11:10:08.490Z,100074.22
2019-02-02T11:12:36.561Z,100080.63
2019-02-02T11:15:08.130Z,100076.81
2019-02-02T11:17:36.310Z,100081.74
2019-02-02T11:20:07.065Z,100082.23
2019-02-02T11:22:37.624Z,100080.98
2019-02-02T11:25:09.720Z,100080.60
2019-02-02T11:27:37.926Z,100086.76
2019-02-02T11:30:08.701Z,100087.13
2019-02-02T11:32:37.897Z,100087.05
2019-02-02T11:35:11.161Z,100100.36
2019-02-02T11:37:39.534Z,100090.63
2019-02-02T11:40:14.285Z,100087.09
2019-02-02T11:42:42.154Z,100099.06
2019-02-02T11:45:10.424Z,100094.26
2019-02-02T11:47:41.130Z,100091.40
2019-02-02T11:50:11.113Z,100100.50
2019-02-02T11:52:39.101Z,100098.61
2019-02-02T11:55:08.080Z,100101.91
2019-02-02T11:57:36.023Z,100107.59
2019-02-02T12:00:11.813Z,100111.37
2019-02-02T12:02:49.051Z,100109.45
2019-02-02T12:05:09.935Z,100113.17
2019-02-02T12:07:37.831Z,100117.88
2019-02-02T12:10:08.580Z,100126.05
2019-02-02T12:12:36.511Z,100129.60
2019-02-02T12:15:07.678Z,100125.63
2019-02-02T12:17:35.666Z,100129.91
2019-02-02T12:20:05.789Z,100132.88
2019-02-02T12:22:34.968Z,100140.05
2019-02-02T12:25:04.344Z,100138.02
2019-02-02T12:27:32.403Z,100137.38
2019-02-02T12:30:01.534Z,100149.14
2019-02-02T12:32:29.915Z,100151.92
2019-02-02T12:34:59.771Z,100151.61
2019-02-02T12:37:33.732Z,100164.56
2019-02-02T12:40:02.402Z,100153.47
2019-02-02T12:42:30.647Z,100158.98
2019-02-02T12:45:00.332Z,100161.73
2019-02-02T12:47:28.532Z,100165.66
2019-02-02T12:49:56.737Z,100172.86
2019-02-02T12:52:31.274Z,100170.01
2019-02-02T12:55:00.636Z,100173.38
2019-02-02T12:57:31.963Z,100181.14
2019-02-02T13:00:00.241Z,100185.46
2019-02-02T13:02:37.847Z,100197.80
2019-02-02T13:04:59.111Z,100193.83
2019-02-02T13:07:27.547Z,100196.86
2019-02-02T13:09:55.734Z,100202.27
2019-02-02T13:12:23.827Z,100208.33
2019-02-02T13:14:51.962Z,100211.68
2019-02-02T13:17:22.534Z,100214.50
2019-02-02T13:19:50.623Z,100221.78
2019-02-02T13:22:25.707Z,100222.06
2019-02-02T13:24:56.560Z,100228.68
2019-02-02T13:27:27.686Z,100226.46
2019-02-02T13:29:57.582Z,100237.23
2019-02-02T13:32:28.078Z,100241.30
2019-02-02T13:34:56.776Z,100250.47
2019-02-02T13:37:27.566Z,100248.52
2019-02-02T13:39:58.704Z,100254.97
2019-02-02T13:42:29.944Z,100252.08
2019-02-02T13:44:58.000Z,100260.22
2019-02-02T13:47:28.254Z,100262.42
2019-02-02T13:49:56.397Z,100257.59
2019-02-02T13:52:27.634Z,100268.74
2019-02-02T13:54:55.912Z,100272.53
2019-02-02T13:57:24.021Z,100276.73
2019-02-02T13:59:52.734Z,100281.55
2019-02-02T14:02:21.452Z,100283.47
2019-02-02T14:04:50.677Z,100292.53
2019-02-02T14:07:20.888Z,100295.69
2019-02-02T14:09:49.171Z,100305.24
2019-02-02T14:12:17.775Z,100311.20
2019-02-02T14:14:45.816Z,100317.89
2019-02-02T14:17:13.840Z,100327.54
2019-02-02T14:19:42.054Z,100328.77
2019-02-02T14:22:13.134Z,100335.72
2019-02-02T14:24:44.562Z,100334.22
2019-02-02T14:27:13.232Z,100345.52
2019-02-02T14:29:41.181Z,100347.49
2019-02-02T14:32:12.382Z,100352.73
2019-02-02T14:34:41.607Z,100353.88
2019-02-02T14:37:09.693Z,100359.67
2019-02-02T14:39:37.813Z,100374.34
2019-02-02T14:42:08.345Z,100365.86
2019-02-02T14:44:36.242Z,100373.35
2019-02-02T14:47:04.522Z,100384.92
2019-02-02T14:49:32.630Z,100381.02
2019-02-02T14:52:00.630Z,100394.05
2019-02-02T14:54:28.633Z,100394.24
2019-02-02T14:56:56.753Z,100398.05
2019-02-02T14:59:25.075Z,100402.72
2019-02-02T15:01:53.250Z,100408.20
2019-02-02T15:04:21.228Z,100406.84
2019-02-02T15:06:49.221Z,100404.09
2019-02-02T15:09:17.490Z,100417.16
2019-02-02T15:11:45.390Z,100416.11
2019-02-02T15:14:13.333Z,100427.61
2019-02-02T15:16:41.389Z,100424.19
2019-02-02T15:19:09.338Z,100436.14
2019-02-02T15:21:37.289Z,100434.07
2019-02-02T15:24:07.588Z,100436.60
2019-02-02T15:26:36.195Z,100436.97
2019-02-02T15:29:04.599Z,100443.20
2019-02-02T15:31:32.581Z,100447.61
2019-02-02T15:34:00.609Z,100448.45
2019-02-02T15:36:28.497Z,100458.72
2019-02-02T15:38:56.504Z,100468.98
2019-02-02T15:41:24.498Z,100467.14
2019-02-02T15:43:52.539Z,100472.09
2019-02-02T15:46:20.599Z,100475.52
2019-02-02T15:48:48.542Z,100477.97
2019-02-02T15:51:16.502Z,100483.48
2019-02-02T15:53:44.404Z,100491.94
2019-02-02T15:56:12.293Z,100491.00
2019-02-02T15:58:40.355Z,100502.36
2019-02-02T16:01:08.232Z,100507.44
2019-02-02T16:03:36.493Z,100513.22
2019-02-02T16:06:04.750Z,100518.93
2019-02-02T16:08:33.121Z,100521.64
2019-02-02T16:11:01.032Z,100519.86
2019-02-02T16:13:29.609Z,100529.58
2019-02-02T16:15:57.579Z,100532.53
2019-02-02T16:18:25.450Z,100534.53
2019-02-02T16:20:53.367Z,100550.50
2019-02-02T16:23:21.376Z,100548.80
2019-02-02T16:25:49.419Z,100557.92
2019-02-02T16:28:17.506Z,100556.45
2019-02-02T16:30:45.567Z,100559.14
2019-02-02T16:33:13.413Z,100573.34
2019-02-02T16:35:41.726Z,100580.80
2019-02-02T16:38:09.719Z,100582.80
2019-02-02T16:40:37.600Z,100582.09
2019-02-02T16:43:05.484Z,100594.52
2019-02-02T16:45:33.735Z,100599.83
2019-02-02T16:48:01.775Z,100607.96
2019-02-02T16:50:29.676Z,100614.72
2019-02-02T16:52:57.625Z,100618.25
2019-02-02T16:55:25.799Z,100626.91
2019-02-02T16:57:53.691Z,100634.34
2019-02-02T17:00:24.918Z,100644.52
2019-02-02T17:02:52.851Z,100648.95
2019-02-02T17:05:20.751Z,100652.88
2019-02-02T17:07:48.926Z,100651.65
2019-02-02T17:10:20.837Z,100654.66
2019-02-02T17:12:48.778Z,100658.92
2019-02-02T17:15:16.724Z,100664.92
2019-02-02T17:17:44.864Z,100672.58
2019-02-02T17:20:16.478Z,100673.72
2019-02-02T17:22:44.477Z,100678.80
2019-02-02T17:25:15.726Z,100687.39
2019-02-02T17:27:43.997Z,100686.70
2019-02-02T17:30:15.625Z,100689.38
2019-02-02T17:32:43.600Z,100693.64
2019-02-02T17:35:12.355Z,100696.38
2019-02-02T17:37:40.493Z,100706.92
2019-02-02T17:40:16.084Z,100714.47
2019-02-02T17:42:43.964Z,100717.81
2019-02-02T17:45:14.381Z,100727.80
2019-02-02T17:47:42.520Z,100736.04
2019-02-02T17:50:14.343Z,100743.02
2019-02-02T17:52:42.317Z,100749.13
2019-02-02T17:55:10.362Z,100747.55
2019-02-02T17:57:39.758Z,100754.42
2019-02-02T18:00:18.582Z,100759.70
2019-02-02T18:02:46.595Z,100767.50
2019-02-02T18:05:14.750Z,100776.05
2019-02-02T18:07:42.593Z,100775.78
2019-02-02T18:10:14.946Z,100778.54
2019-02-02T18:12:43.057Z,100779.63
2019-02-02T18:15:12.423Z,100777.56
2019-02-02T18:17:40.967Z,100783.88
2019-02-02T18:20:11.917Z,100782.89
2019-02-02T18:22:43.522Z,100790.25
2019-02-02T18:25:14.609Z,100791.79
2019-02-02T18:27:42.657Z,100788.84
2019-02-02T18:30:17.235Z,100803.52
2019-02-02T18:32:45.522Z,100811.87
2019-02-02T18:35:14.001Z,100815.48
2019-02-02T18:37:42.099Z,100828.61
2019-02-02T18:40:12.505Z,100828.19
2019-02-02T18:42:43.064Z,100832.64
2019-02-02T18:45:29.433Z,100847.86
2019-02-02T18:48:00.245Z,100851.34
2019-02-02T18:50:28.617Z,100853.98
2019-02-02T18:52:57.861Z,100858.79
2019-02-02T18:55:33.511Z,100867.20
2019-02-02T18:58:02.619Z,100866.47
2019-02-02T19:00:30.614Z,100876.84
2019-02-02T19:03:00.680Z,100876.79
2019-02-02T19:05:29.328Z,100890.57
2019-02-02T19:07:57.655Z,100896.44
2019-02-02T19:10:29.509Z,100909.91
2019-02-02T19:12:57.526Z,100908.71
2019-02-02T19:15:25.399Z,100917.92
2019-02-02T19:17:53.770Z,100916.12
2019-02-02T19:20:22.008Z,100917.09
2019-02-02T19:22:50.209Z,100924.86
2019-02-02T19:25:18.412Z,100928.98
2019-02-02T19:27:46.418Z,100932.02
2019-02-02T19:30:23.372Z,100939.90
2019-02-02T19:32:51.403Z,100940.12
2019-02-02T19:35:21.749Z,100941.28
2019-02-02T19:37:49.774Z,100948.19
2019-02-02T19:40:18.028Z,100956.44
2019-02-02T19:42:46.024Z,100956.98
2019-02-02T19:45:20.137Z,100968.59
2019-02-02T19:47:48.297Z,100970.64
2019-02-02T19:50:19.925Z,100983.31
2019-02-02T19:52:50.122Z,100978.82
2019-02-02T19:55:18.350Z,100983.77
2019-02-02T19:57:47.252Z,100993.67
2019-02-02T20:00:24.117Z,100997.34
2019-02-02T20:02:52.950Z,101010.06
2019-02-02T20:05:28.867Z,101008.15
2019-02-02T20:07:50.865Z,101016.04
2019-02-02T20:10:19.035Z,101025.72
2019-02-02T20:12:49.563Z,101027.11
2019-02-02T20:15:20.432Z,101027.78
2019-02-02T20:17:48.551Z,101029.75
2019-02-02T20:20:21.973Z,101028.91
2019-02-02T20:22:52.520Z,101035.41
2019-02-02T20:25:23.755Z,101036.16
2019-02-02T20:27:53.099Z,101041.59
2019-02-02T20:30:25.419Z,101044.94
2019-02-02T20:32:54.572Z,101042.51
2019-02-02T20:35:22.495Z,101047.90
2019-02-02T20:37:50.448Z,101054.30
2019-02-02T20:40:22.637Z,101056.61
2019-02-02T20:42:50.882Z,101062.02
2019-02-02T20:45:22.804Z,101068.31
2019-02-02T20:47:51.687Z,101067.97
2019-02-02T20:50:19.659Z,101067.97
2019-02-02T20:52:48.048Z,101075.28
2019-02-02T20:55:19.924Z,101073.95
2019-02-02T20:57:48.366Z,101082.47
2019-02-02T21:00:22.495Z,101088.64
2019-02-02T21:02:51.064Z,101087.52
2019-02-02T21:05:19.080Z,101090.41
2019-02-02T21:07:47.251Z,101096.09
2019-02-02T21:10:21.764Z,101100.48
2019-02-02T21:12:49.921Z,101109.05
2019-02-02T21:15:20.695Z,101114.52
2019-02-02T21:17:49.450Z,101129.52
2019-02-02T21:20:20.706Z,101129.56
2019-02-02T21:22:49.502Z,101129.66
2019-02-02T21:25:17.585Z,101136.97
2019-02-02T21:27:46.349Z,101136.31
2019-02-02T21:30:25.807Z,101138.39
2019-02-02T21:32:54.412Z,101139.20
2019-02-02T21:35:24.787Z,101147.59
2019-02-02T21:37:53.252Z,101157.35
2019-02-02T21:40:29.689Z,101169.77
2019-02-02T21:42:58.031Z,101172.73
2019-02-02T21:45:26.122Z,101174.59
2019-02-02T21:47:55.816Z,101177.67
2019-02-02T21:50:24.166Z,101180.89
2019-02-02T21:52:52.442Z,101179.66
2019-02-02T21:55:25.754Z,101177.42
2019-02-02T21:57:55.392Z,101182.28
2019-02-02T22:00:30.143Z,101192.57
2019-02-02T22:03:01.024Z,101194.77
2019-02-02T22:05:29.031Z,101202.35
2019-02-02T22:07:57.320Z,101203.80
2019-02-02T22:10:28.247Z,101206.64
2019-02-02T22:12:57.021Z,101211.80
2019-02-02T22:15:26.609Z,101221.02
2019-02-02T22:17:55.389Z,101226.68
2019-02-02T22:20:24.312Z,101227.31
2019-02-02T22:22:52.684Z,101228.83
2019-02-02T22:25:24.011Z,101242.65
2019-02-02T22:27:52.126Z,101254.53
2019-02-02T22:30:29.232Z,101253.53
2019-02-02T22:32:57.846Z,101259.71
2019-02-02T22:35:26.534Z,101270.13
2019-02-02T22:37:55.831Z,101273.65
2019-02-02T22:40:25.284Z,101274.52
2019-02-02T22:42:53.488Z,101276.67
2019-02-02T22:45:21.881Z,101284.80
2019-02-02T22:47:50.544Z,101286.38
2019-02-02T22:50:21.243Z,101276.63
2019-02-02T22:52:49.421Z,101284.30
2019-02-02T22:55:18.432Z,101289.89
2019-02-02T22:57:46.540Z,101294.65
2019-02-02T23:00:59.853Z,101306.81
2019-02-02T23:03:48.119Z,101310.75
2019-02-02T23:06:55.811Z,101323.21
2019-02-02T23:10:29.784Z,101325.37
2019-02-02T23:14:07.389Z,101339.15
2019-02-02T23:16:41.877Z,101346.30
2019-02-02T23:19:10.003Z,101343.48
2019-02-02T23:21:38.192Z,101348.77
2019-02-02T23:24:06.286Z,101352.99
2019-02-02T23:26:34.321Z,101354.31
2019-02-02T23:29:03.285Z,101370.66
2019-02-02T23:31:31.285Z,101369.42
2019-02-02T23:34:03.931Z,101372.52
2019-02-02T23:36:31.901Z,101380.33
2019-02-02T23:38:59.915Z,101382.98
2019-02-02T23:41:30.337Z,101391.16
2019-02-02T23:44:01.185Z,101394.22
2019-02-02T23:46:29.214Z,101399.01
2019-02-02T23:48:57.293Z,101402.90
2019-02-02T23:51:25.245Z,101398.57
2019-02-02T23:53:53.593Z,101401.61
2019-02-02T23:56:21.607Z,101413.61
2019-02-02T23:58:49.496Z,101414.90
